オスロ の空港の天気 - METARとTAF

オスロ空港 ( ENGM / OSL ) - ノルウェー アーケシュフース県オスロ
飛行場実況気象(Metar)
観測時間12/14 07:20 CET (12/14 06:20 UTC)
風向・風速北西 2m/s
視程10km以上
天気現象
全天を覆う雲 雲底高度 150m
気温-11℃
湿度85%
気圧1034hPa
METARENGM 140620Z 32003KT 290V350 9999 OVC005 M11/M13 Q1034 TEMPO OVC003
過去の天気等 Google飛行場航空写真 Wunderground天気予報

過去48時間のMETAR

飛行場予報(TAF)
発表時間: -
14日7時 CET ~ 14日22時 CET に一時的に
少しの雲 雲底高度 120m
全天の8割程度の雲 雲底高度 370m
14日22時 CET から 確率 40% で
視程500m
天気現象氷霧
全天を覆う雲 鉛直視程 30m
TAF ENGM 1406/1506 VRB03KT 9000 -SN OVC004
TEMPO 1406/1421 FEW004 BKN012
PROB40 1421/1506 0500 FZFG VV001